sensor_id;sensor_type;location;lat;lon;timestamp;P1;durP1;ratioP1;P2;durP2;ratioP2
83684;SDS011;73666;51.304;5.776;2024-01-30T00:04:36;10.52;;;6.00;;
83684;SDS011;73666;51.304;5.776;2024-01-30T00:09:37;9.98;;;6.38;;
83684;SDS011;73666;51.304;5.776;2024-01-30T00:14:41;8.90;;;6.03;;
83684;SDS011;73666;51.304;5.776;2024-01-30T00:19:43;11.32;;;6.53;;
83684;SDS011;73666;51.304;5.776;2024-01-30T00:24:44;12.98;;;6.25;;
83684;SDS011;73666;51.304;5.776;2024-01-30T00:29:45;9.85;;;6.10;;
83684;SDS011;73666;51.304;5.776;2024-01-30T00:34:45;9.35;;;6.18;;
83684;SDS011;73666;51.304;5.776;2024-01-30T00:39:46;9.55;;;6.38;;
83684;SDS011;73666;51.304;5.776;2024-01-30T00:44:47;9.27;;;5.57;;
83684;SDS011;73666;51.304;5.776;2024-01-30T00:49:48;11.25;;;5.55;;
83684;SDS011;73666;51.304;5.776;2024-01-30T00:54:49;11.60;;;6.22;;
83684;SDS011;73666;51.304;5.776;2024-01-30T00:59:50;10.85;;;6.03;;
83684;SDS011;73666;51.304;5.776;2024-01-30T01:04:51;10.13;;;5.32;;
83684;SDS011;73666;51.304;5.776;2024-01-30T01:09:52;14.68;;;5.75;;
83684;SDS011;73666;51.304;5.776;2024-01-30T01:14:53;11.35;;;6.03;;
83684;SDS011;73666;51.304;5.776;2024-01-30T01:19:53;11.25;;;6.32;;
83684;SDS011;73666;51.304;5.776;2024-01-30T01:24:54;10.60;;;5.28;;
83684;SDS011;73666;51.304;5.776;2024-01-30T01:29:55;9.13;;;5.90;;
83684;SDS011;73666;51.304;5.776;2024-01-30T01:34:55;8.82;;;5.28;;
83684;SDS011;73666;51.304;5.776;2024-01-30T01:39:56;10.27;;;6.38;;
83684;SDS011;73666;51.304;5.776;2024-01-30T01:44:57;9.95;;;6.28;;
83684;SDS011;73666;51.304;5.776;2024-01-30T01:49:58;9.23;;;6.05;;
83684;SDS011;73666;51.304;5.776;2024-01-30T01:54:59;10.02;;;5.88;;
83684;SDS011;73666;51.304;5.776;2024-01-30T02:00:00;10.45;;;6.05;;
83684;SDS011;73666;51.304;5.776;2024-01-30T02:05:02;9.45;;;6.38;;
83684;SDS011;73666;51.304;5.776;2024-01-30T02:10:04;11.15;;;6.25;;
83684;SDS011;73666;51.304;5.776;2024-01-30T02:15:05;12.20;;;6.05;;
83684;SDS011;73666;51.304;5.776;2024-01-30T02:20:08;11.27;;;6.30;;
83684;SDS011;73666;51.304;5.776;2024-01-30T02:25:09;10.52;;;6.03;;
83684;SDS011;73666;51.304;5.776;2024-01-30T02:30:10;11.70;;;6.05;;
83684;SDS011;73666;51.304;5.776;2024-01-30T02:35:11;11.52;;;6.43;;
83684;SDS011;73666;51.304;5.776;2024-01-30T02:40:12;11.25;;;6.53;;
83684;SDS011;73666;51.304;5.776;2024-01-30T02:45:23;11.13;;;6.10;;
83684;SDS011;73666;51.304;5.776;2024-01-30T02:50:24;9.85;;;5.30;;
83684;SDS011;73666;51.304;5.776;2024-01-30T02:55:25;13.82;;;5.40;;
83684;SDS011;73666;51.304;5.776;2024-01-30T03:00:28;9.35;;;5.60;;
83684;SDS011;73666;51.304;5.776;2024-01-30T03:05:29;11.45;;;6.05;;
83684;SDS011;73666;51.304;5.776;2024-01-30T03:10:39;12.57;;;6.07;;
83684;SDS011;73666;51.304;5.776;2024-01-30T03:15:43;10.70;;;6.45;;
83684;SDS011;73666;51.304;5.776;2024-01-30T03:20:43;10.05;;;5.75;;
83684;SDS011;73666;51.304;5.776;2024-01-30T03:25:44;10.25;;;6.07;;
83684;SDS011;73666;51.304;5.776;2024-01-30T03:30:51;10.50;;;5.47;;
83684;SDS011;73666;51.304;5.776;2024-01-30T03:35:52;11.75;;;6.40;;
83684;SDS011;73666;51.304;5.776;2024-01-30T03:40:53;10.60;;;6.25;;
83684;SDS011;73666;51.304;5.776;2024-01-30T03:45:57;11.57;;;6.20;;
83684;SDS011;73666;51.304;5.776;2024-01-30T03:50:58;10.13;;;5.85;;
83684;SDS011;73666;51.304;5.776;2024-01-30T03:55:59;9.48;;;5.95;;
83684;SDS011;73666;51.304;5.776;2024-01-30T04:01:03;8.35;;;5.63;;
83684;SDS011;73666;51.304;5.776;2024-01-30T04:06:07;9.43;;;5.50;;
83684;SDS011;73666;51.304;5.776;2024-01-30T04:11:09;7.55;;;5.43;;
83684;SDS011;73666;51.304;5.776;2024-01-30T04:16:18;9.68;;;5.22;;
83684;SDS011;73666;51.304;5.776;2024-01-30T04:21:21;9.90;;;4.45;;
83684;SDS011;73666;51.304;5.776;2024-01-30T04:26:22;6.55;;;4.88;;
83684;SDS011;73666;51.304;5.776;2024-01-30T04:31:24;9.77;;;4.80;;
83684;SDS011;73666;51.304;5.776;2024-01-30T04:36:25;8.00;;;4.80;;
83684;SDS011;73666;51.304;5.776;2024-01-30T04:41:26;7.38;;;4.70;;
83684;SDS011;73666;51.304;5.776;2024-01-30T04:46:31;8.88;;;4.88;;
83684;SDS011;73666;51.304;5.776;2024-01-30T04:51:34;6.38;;;4.30;;
83684;SDS011;73666;51.304;5.776;2024-01-30T04:56:34;10.18;;;4.95;;
83684;SDS011;73666;51.304;5.776;2024-01-30T05:01:41;7.32;;;4.68;;
83684;SDS011;73666;51.304;5.776;2024-01-30T05:06:42;9.75;;;5.15;;
83684;SDS011;73666;51.304;5.776;2024-01-30T05:11:49;7.18;;;4.50;;
83684;SDS011;73666;51.304;5.776;2024-01-30T05:17:02;11.60;;;5.10;;
83684;SDS011;73666;51.304;5.776;2024-01-30T05:22:08;8.48;;;4.88;;
83684;SDS011;73666;51.304;5.776;2024-01-30T05:27:09;13.00;;;5.82;;
83684;SDS011;73666;51.304;5.776;2024-01-30T05:32:16;20.25;;;9.32;;
83684;SDS011;73666;51.304;5.776;2024-01-30T05:37:17;10.65;;;6.97;;
83684;SDS011;73666;51.304;5.776;2024-01-30T05:42:21;8.35;;;5.05;;
83684;SDS011;73666;51.304;5.776;2024-01-30T05:47:21;15.13;;;9.25;;
83684;SDS011;73666;51.304;5.776;2024-01-30T05:52:22;8.40;;;5.57;;
83684;SDS011;73666;51.304;5.776;2024-01-30T05:57:23;6.82;;;4.32;;
83684;SDS011;73666;51.304;5.776;2024-01-30T06:02:24;9.05;;;4.70;;
83684;SDS011;73666;51.304;5.776;2024-01-30T06:07:30;7.28;;;4.82;;
83684;SDS011;73666;51.304;5.776;2024-01-30T06:12:34;7.03;;;4.50;;
83684;SDS011;73666;51.304;5.776;2024-01-30T06:17:35;10.10;;;5.40;;
83684;SDS011;73666;51.304;5.776;2024-01-30T06:22:35;9.68;;;6.28;;
83684;SDS011;73666;51.304;5.776;2024-01-30T06:27:36;9.13;;;5.65;;
83684;SDS011;73666;51.304;5.776;2024-01-30T06:32:37;7.53;;;5.13;;
83684;SDS011;73666;51.304;5.776;2024-01-30T06:37:38;8.82;;;5.45;;
83684;SDS011;73666;51.304;5.776;2024-01-30T06:42:39;8.15;;;4.55;;
83684;SDS011;73666;51.304;5.776;2024-01-30T06:47:40;9.00;;;5.20;;
83684;SDS011;73666;51.304;5.776;2024-01-30T06:52:40;9.63;;;4.75;;
83684;SDS011;73666;51.304;5.776;2024-01-30T06:57:41;10.82;;;4.90;;
83684;SDS011;73666;51.304;5.776;2024-01-30T07:02:42;7.45;;;4.55;;
83684;SDS011;73666;51.304;5.776;2024-01-30T07:07:43;7.22;;;4.28;;
83684;SDS011;73666;51.304;5.776;2024-01-30T07:12:43;7.78;;;4.50;;
83684;SDS011;73666;51.304;5.776;2024-01-30T07:17:44;8.95;;;4.15;;
83684;SDS011;73666;51.304;5.776;2024-01-30T07:22:48;10.60;;;4.72;;
83684;SDS011;73666;51.304;5.776;2024-01-30T07:39:27;9.18;;;4.57;;
83684;SDS011;73666;51.304;5.776;2024-01-30T07:50:47;24.00;;;18.27;;
83684;SDS011;73666;51.304;5.776;2024-01-30T07:55:47;8.80;;;5.25;;
83684;SDS011;73666;51.304;5.776;2024-01-30T08:00:49;6.15;;;4.93;;
83684;SDS011;73666;51.304;5.776;2024-01-30T08:05:51;10.35;;;5.38;;
83684;SDS011;73666;51.304;5.776;2024-01-30T08:10:52;11.13;;;5.97;;
83684;SDS011;73666;51.304;5.776;2024-01-30T08:15:53;8.27;;;5.15;;
83684;SDS011;73666;51.304;5.776;2024-01-30T08:20:54;6.55;;;4.45;;
83684;SDS011;73666;51.304;5.776;2024-01-30T08:25:55;5.95;;;4.45;;
83684;SDS011;73666;51.304;5.776;2024-01-30T08:30:55;8.48;;;4.75;;
83684;SDS011;73666;51.304;5.776;2024-01-30T08:35:56;9.20;;;4.53;;
83684;SDS011;73666;51.304;5.776;2024-01-30T08:40:57;5.68;;;4.13;;
83684;SDS011;73666;51.304;5.776;2024-01-30T08:46:00;6.72;;;3.97;;
83684;SDS011;73666;51.304;5.776;2024-01-30T08:51:01;7.78;;;4.20;;
83684;SDS011;73666;51.304;5.776;2024-01-30T08:56:03;8.00;;;4.32;;
83684;SDS011;73666;51.304;5.776;2024-01-30T09:01:05;7.10;;;4.78;;
83684;SDS011;73666;51.304;5.776;2024-01-30T09:06:12;10.65;;;6.28;;
83684;SDS011;73666;51.304;5.776;2024-01-30T09:11:13;6.30;;;4.85;;
83684;SDS011;73666;51.304;5.776;2024-01-30T09:16:15;7.97;;;4.88;;
83684;SDS011;73666;51.304;5.776;2024-01-30T09:21:16;9.95;;;5.72;;
83684;SDS011;73666;51.304;5.776;2024-01-30T09:26:17;6.22;;;4.47;;
83684;SDS011;73666;51.304;5.776;2024-01-30T09:31:17;6.88;;;3.97;;
83684;SDS011;73666;51.304;5.776;2024-01-30T09:36:18;7.85;;;4.50;;
83684;SDS011;73666;51.304;5.776;2024-01-30T09:41:19;9.00;;;5.10;;
83684;SDS011;73666;51.304;5.776;2024-01-30T09:46:26;8.68;;;4.57;;
83684;SDS011;73666;51.304;5.776;2024-01-30T09:51:34;5.05;;;3.13;;
83684;SDS011;73666;51.304;5.776;2024-01-30T09:56:45;7.60;;;4.45;;
83684;SDS011;73666;51.304;5.776;2024-01-30T10:01:48;22.08;;;10.95;;
83684;SDS011;73666;51.304;5.776;2024-01-30T10:07:01;11.00;;;5.93;;
83684;SDS011;73666;51.304;5.776;2024-01-30T10:12:04;6.63;;;4.60;;
83684;SDS011;73666;51.304;5.776;2024-01-30T10:23:33;7.72;;;4.60;;
83684;SDS011;73666;51.304;5.776;2024-01-30T10:33:50;9.88;;;4.85;;
83684;SDS011;73666;51.304;5.776;2024-01-30T10:44:26;9.80;;;4.90;;
83684;SDS011;73666;51.304;5.776;2024-01-30T10:49:51;8.25;;;4.10;;
83684;SDS011;73666;51.304;5.776;2024-01-30T10:54:59;9.05;;;4.50;;
83684;SDS011;73666;51.304;5.776;2024-01-30T11:00:18;8.50;;;4.70;;
83684;SDS011;73666;51.304;5.776;2024-01-30T11:05:48;6.15;;;4.38;;
83684;SDS011;73666;51.304;5.776;2024-01-30T11:11:27;8.95;;;4.70;;
83684;SDS011;73666;51.304;5.776;2024-01-30T11:16:30;8.85;;;5.13;;
83684;SDS011;73666;51.304;5.776;2024-01-30T11:21:32;6.65;;;3.15;;
83684;SDS011;73666;51.304;5.776;2024-01-30T11:26:33;8.98;;;4.57;;
83684;SDS011;73666;51.304;5.776;2024-01-30T11:31:34;9.50;;;4.68;;
83684;SDS011;73666;51.304;5.776;2024-01-30T11:36:35;8.82;;;4.57;;
83684;SDS011;73666;51.304;5.776;2024-01-30T11:41:38;8.82;;;4.88;;
83684;SDS011;73666;51.304;5.776;2024-01-30T11:46:41;11.10;;;5.68;;
83684;SDS011;73666;51.304;5.776;2024-01-30T11:51:41;10.25;;;4.80;;
83684;SDS011;73666;51.304;5.776;2024-01-30T11:56:43;11.73;;;5.03;;
83684;SDS011;73666;51.304;5.776;2024-01-30T12:01:44;7.68;;;4.63;;
83684;SDS011;73666;51.304;5.776;2024-01-30T12:06:44;8.57;;;5.03;;
83684;SDS011;73666;51.304;5.776;2024-01-30T12:11:45;9.80;;;5.18;;
83684;SDS011;73666;51.304;5.776;2024-01-30T12:16:49;9.18;;;5.18;;
83684;SDS011;73666;51.304;5.776;2024-01-30T12:21:56;9.15;;;4.78;;
83684;SDS011;73666;51.304;5.776;2024-01-30T12:26:59;9.45;;;4.80;;
83684;SDS011;73666;51.304;5.776;2024-01-30T12:32:00;10.40;;;4.93;;
83684;SDS011;73666;51.304;5.776;2024-01-30T12:37:01;12.15;;;5.57;;
83684;SDS011;73666;51.304;5.776;2024-01-30T12:42:02;9.63;;;5.22;;
83684;SDS011;73666;51.304;5.776;2024-01-30T12:47:03;8.07;;;4.90;;
83684;SDS011;73666;51.304;5.776;2024-01-30T12:52:04;9.38;;;5.30;;
83684;SDS011;73666;51.304;5.776;2024-01-30T12:57:05;10.55;;;5.28;;
83684;SDS011;73666;51.304;5.776;2024-01-30T13:02:06;9.00;;;4.00;;
83684;SDS011;73666;51.304;5.776;2024-01-30T13:07:07;7.32;;;3.45;;
83684;SDS011;73666;51.304;5.776;2024-01-30T13:12:08;5.10;;;2.33;;
83684;SDS011;73666;51.304;5.776;2024-01-30T13:17:09;5.57;;;1.80;;
83684;SDS011;73666;51.304;5.776;2024-01-30T13:22:10;5.32;;;2.13;;
83684;SDS011;73666;51.304;5.776;2024-01-30T13:50:41;1.45;;;0.60;;
83684;SDS011;73666;51.304;5.776;2024-01-30T13:56:04;1.20;;;0.50;;
83684;SDS011;73666;51.304;5.776;2024-01-30T14:01:09;1.60;;;0.40;;
83684;SDS011;73666;51.304;5.776;2024-01-30T14:17:14;1.52;;;0.43;;
83684;SDS011;73666;51.304;5.776;2024-01-30T14:22:27;1.27;;;0.30;;
83684;SDS011;73666;51.304;5.776;2024-01-30T14:27:31;2.70;;;0.60;;
83684;SDS011;73666;51.304;5.776;2024-01-30T14:38:36;2.33;;;0.47;;
83684;SDS011;73666;51.304;5.776;2024-01-30T14:44:24;1.83;;;0.60;;
83684;SDS011;73666;51.304;5.776;2024-01-30T14:50:07;1.73;;;0.40;;
83684;SDS011;73666;51.304;5.776;2024-01-30T14:55:11;3.72;;;0.50;;
83684;SDS011;73666;51.304;5.776;2024-01-30T15:00:14;1.77;;;0.68;;
83684;SDS011;73666;51.304;5.776;2024-01-30T15:05:55;2.22;;;0.73;;
83684;SDS011;73666;51.304;5.776;2024-01-30T15:11:02;4.25;;;0.68;;
83684;SDS011;73666;51.304;5.776;2024-01-30T15:16:51;2.30;;;0.50;;
83684;SDS011;73666;51.304;5.776;2024-01-30T15:21:36;2.30;;;0.47;;
83684;SDS011;73666;51.304;5.776;2024-01-30T15:26:37;2.83;;;0.52;;
83684;SDS011;73666;51.304;5.776;2024-01-30T15:31:43;1.30;;;0.70;;
83684;SDS011;73666;51.304;5.776;2024-01-30T15:42:23;3.10;;;1.00;;
83684;SDS011;73666;51.304;5.776;2024-01-30T15:47:46;3.67;;;0.95;;
83684;SDS011;73666;51.304;5.776;2024-01-30T15:58:07;4.05;;;1.15;;
83684;SDS011;73666;51.304;5.776;2024-01-30T16:03:07;2.75;;;0.80;;
83684;SDS011;73666;51.304;5.776;2024-01-30T16:08:08;1.60;;;0.80;;
83684;SDS011;73666;51.304;5.776;2024-01-30T16:13:09;3.72;;;0.70;;
83684;SDS011;73666;51.304;5.776;2024-01-30T16:18:10;2.65;;;0.93;;
83684;SDS011;73666;51.304;5.776;2024-01-30T16:23:10;2.47;;;0.55;;
83684;SDS011;73666;51.304;5.776;2024-01-30T16:28:12;2.83;;;0.82;;
83684;SDS011;73666;51.304;5.776;2024-01-30T16:33:13;2.60;;;0.73;;
83684;SDS011;73666;51.304;5.776;2024-01-30T16:38:15;2.28;;;0.82;;
83684;SDS011;73666;51.304;5.776;2024-01-30T16:53:50;2.35;;;1.00;;
83684;SDS011;73666;51.304;5.776;2024-01-30T16:58:51;2.40;;;1.42;;
83684;SDS011;73666;51.304;5.776;2024-01-30T17:04:20;4.82;;;1.77;;
83684;SDS011;73666;51.304;5.776;2024-01-30T17:09:29;5.18;;;2.60;;
83684;SDS011;73666;51.304;5.776;2024-01-30T17:14:36;3.55;;;1.50;;
83684;SDS011;73666;51.304;5.776;2024-01-30T17:19:42;2.70;;;2.47;;
83684;SDS011;73666;51.304;5.776;2024-01-30T17:30:48;4.85;;;1.73;;
83684;SDS011;73666;51.304;5.776;2024-01-30T17:41:18;4.95;;;1.65;;
83684;SDS011;73666;51.304;5.776;2024-01-30T17:46:19;4.43;;;2.42;;
83684;SDS011;73666;51.304;5.776;2024-01-30T17:51:20;4.25;;;1.92;;
83684;SDS011;73666;51.304;5.776;2024-01-30T18:02:12;3.40;;;1.98;;
83684;SDS011;73666;51.304;5.776;2024-01-30T18:12:47;4.97;;;2.45;;
83684;SDS011;73666;51.304;5.776;2024-01-30T18:17:47;5.75;;;3.50;;
83684;SDS011;73666;51.304;5.776;2024-01-30T18:22:48;5.15;;;2.80;;
83684;SDS011;73666;51.304;5.776;2024-01-30T18:27:49;6.10;;;3.58;;
83684;SDS011;73666;51.304;5.776;2024-01-30T18:32:50;5.30;;;3.72;;
83684;SDS011;73666;51.304;5.776;2024-01-30T18:37:52;7.88;;;4.90;;
83684;SDS011;73666;51.304;5.776;2024-01-30T18:42:52;8.90;;;5.07;;
83684;SDS011;73666;51.304;5.776;2024-01-30T18:47:54;8.77;;;5.07;;
83684;SDS011;73666;51.304;5.776;2024-01-30T18:52:54;7.90;;;4.28;;
83684;SDS011;73666;51.304;5.776;2024-01-30T18:57:56;9.90;;;4.93;;
83684;SDS011;73666;51.304;5.776;2024-01-30T19:02:57;9.77;;;4.93;;
83684;SDS011;73666;51.304;5.776;2024-01-30T19:07:57;9.75;;;4.60;;
83684;SDS011;73666;51.304;5.776;2024-01-30T19:12:58;9.73;;;5.25;;
83684;SDS011;73666;51.304;5.776;2024-01-30T19:17:59;9.07;;;4.63;;
83684;SDS011;73666;51.304;5.776;2024-01-30T19:23:00;8.48;;;5.28;;
83684;SDS011;73666;51.304;5.776;2024-01-30T19:28:00;9.65;;;5.70;;
83684;SDS011;73666;51.304;5.776;2024-01-30T19:33:02;11.35;;;5.72;;
83684;SDS011;73666;51.304;5.776;2024-01-30T19:38:04;8.77;;;5.28;;
83684;SDS011;73666;51.304;5.776;2024-01-30T19:43:04;9.55;;;5.45;;
83684;SDS011;73666;51.304;5.776;2024-01-30T19:48:05;10.15;;;5.35;;
83684;SDS011;73666;51.304;5.776;2024-01-30T19:53:06;8.75;;;5.45;;
83684;SDS011;73666;51.304;5.776;2024-01-30T19:58:07;9.70;;;5.68;;
83684;SDS011;73666;51.304;5.776;2024-01-30T20:03:08;10.38;;;5.35;;
83684;SDS011;73666;51.304;5.776;2024-01-30T20:08:08;11.00;;;5.70;;
83684;SDS011;73666;51.304;5.776;2024-01-30T20:13:09;11.35;;;6.50;;
83684;SDS011;73666;51.304;5.776;2024-01-30T20:18:10;11.73;;;6.38;;
83684;SDS011;73666;51.304;5.776;2024-01-30T20:23:11;13.48;;;6.55;;
83684;SDS011;73666;51.304;5.776;2024-01-30T20:28:15;19.58;;;7.20;;
83684;SDS011;73666;51.304;5.776;2024-01-30T20:33:16;12.30;;;7.35;;
83684;SDS011;73666;51.304;5.776;2024-01-30T20:38:17;13.73;;;6.78;;
